Time;durP1;ratioP1;P1;durP2;ratioP2;P2;SDS_P1;SDS_P2;PMS_P1;PMS_P2;Temp;Humidity;BMP_temperature;BMP_pressure;BME280_temperature;BME280_humidity;BME280_pressure;Samples;Min_cycle;Max_cycle;Signal;HPM_P1;HPM_P2
2021/03/10 00:00:23;;;;;;;7.75;5.00;;;;;8.50;101714.00;;;;5074768;28;20671;-76
2021/03/10 00:02:50;;;;;;;7.07;4.80;;;;;8.40;101711.00;;;;5073615;28;20198;-76
2021/03/10 00:05:17;;;;;;;9.80;5.05;;;;;8.40;101710.00;;;;5072964;28;20264;-76
2021/03/10 00:07:44;;;;;;;8.75;4.68;;;;;8.40;101713.00;;;;5073206;28;20194;-76
2021/03/10 00:10:13;;;;;;;7.40;4.60;;;;;8.40;101703.00;;;;5074454;28;20277;-76
2021/03/10 00:12:40;;;;;;;8.45;4.22;;;;;8.40;101705.00;;;;5074542;28;20202;-76
2021/03/10 00:15:10;;;;;;;6.75;4.05;;;;;8.40;101705.00;;;;5073471;28;20886;-76
2021/03/10 00:17:38;;;;;;;7.97;4.45;;;;;8.40;101701.00;;;;5076737;28;20202;-77
2021/03/10 00:20:06;;;;;;;7.00;4.30;;;;;8.40;101706.00;;;;5077267;28;20201;-76
2021/03/10 00:22:33;;;;;;;7.03;4.43;;;;;8.40;101693.00;;;;5078801;28;20909;-76
2021/03/10 00:25:00;;;;;;;6.88;4.05;;;;;8.40;101690.00;;;;5076973;28;20219;-76
2021/03/10 00:27:27;;;;;;;7.03;4.65;;;;;8.40;101698.00;;;;5078923;28;20220;-76
2021/03/10 00:29:55;;;;;;;7.20;4.40;;;;;8.50;101690.00;;;;5076597;28;20198;-76
2021/03/10 00:32:25;;;;;;;7.45;4.60;;;;;8.50;101690.00;;;;5077093;28;20205;-76
2021/03/10 00:34:52;;;;;;;9.65;4.78;;;;;8.50;101697.00;;;;5076712;28;20186;-76
2021/03/10 00:37:19;;;;;;;6.80;3.92;;;;;8.50;101696.00;;;;5077284;28;20583;-76
2021/03/10 00:39:47;;;;;;;6.90;4.32;;;;;8.50;101695.00;;;;5076375;28;20656;-76
2021/03/10 00:42:14;;;;;;;7.93;4.30;;;;;8.50;101696.00;;;;5077507;28;20202;-76
2021/03/10 00:44:42;;;;;;;6.07;3.63;;;;;8.60;101706.00;;;;5077125;28;21059;-76
2021/03/10 00:47:09;;;;;;;6.07;4.32;;;;;8.60;101701.00;;;;5077040;28;20222;-76
2021/03/10 00:49:37;;;;;;;7.40;4.28;;;;;8.60;101699.00;;;;5076034;28;20238;-76
2021/03/10 00:52:05;;;;;;;6.45;4.22;;;;;8.60;101696.00;;;;5079643;28;20241;-76
2021/03/10 00:54:32;;;;;;;7.55;4.35;;;;;8.60;101694.00;;;;5075592;28;20253;-77
2021/03/10 00:56:59;;;;;;;6.35;4.18;;;;;8.50;101691.00;;;;5076930;28;20202;-76
2021/03/10 00:59:25;;;;;;;5.57;3.63;;;;;8.50;101687.00;;;;5076541;28;20195;-77
2021/03/10 01:01:54;;;;;;;7.35;4.05;;;;;8.50;101682.00;;;;5077498;28;20202;-76
2021/03/10 01:04:20;;;;;;;6.57;3.97;;;;;8.50;101680.00;;;;5077077;28;20778;-76
2021/03/10 01:06:48;;;;;;;7.68;4.10;;;;;8.50;101682.00;;;;5076209;28;20206;-76
2021/03/10 01:09:16;;;;;;;6.30;3.85;;;;;8.50;101681.00;;;;5077407;28;20198;-76
2021/03/10 01:11:43;;;;;;;7.43;4.30;;;;;8.50;101683.00;;;;5089627;28;20648;-76
2021/03/10 01:14:10;;;;;;;7.13;4.68;;;;;8.40;101678.00;;;;5086871;28;20202;-77
2021/03/10 01:16:38;;;;;;;7.28;4.97;;;;;8.40;101682.00;;;;5072284;28;20211;-76
2021/03/10 01:19:05;;;;;;;6.72;4.63;;;;;8.40;101682.00;;;;5083577;28;20199;-77
2021/03/10 01:21:32;;;;;;;7.35;4.30;;;;;8.40;101683.00;;;;5072398;28;20194;-76
2021/03/10 01:24:00;;;;;;;6.93;4.80;;;;;8.40;101692.00;;;;5088158;28;20221;-76
2021/03/10 01:26:27;;;;;;;6.30;4.00;;;;;8.40;101690.00;;;;5086840;28;20750;-76
2021/03/10 01:28:53;;;;;;;7.97;4.45;;;;;8.40;101685.00;;;;5088051;28;20216;-77
2021/03/10 01:31:20;;;;;;;7.18;4.32;;;;;8.40;101683.00;;;;5087209;28;20202;-77
2021/03/10 01:33:47;;;;;;;8.35;4.40;;;;;8.40;101672.00;;;;5086428;28;20226;-76
2021/03/10 01:36:13;;;;;;;6.90;4.45;;;;;8.40;101673.00;;;;5090209;28;20198;-76
2021/03/10 01:38:40;;;;;;;6.93;4.25;;;;;8.40;101678.00;;;;5078719;28;20195;-76
2021/03/10 01:41:08;;;;;;;8.43;5.35;;;;;8.50;101663.00;;;;5083181;28;20194;-77
2021/03/10 01:43:35;;;;;;;7.32;3.97;;;;;8.50;101667.00;;;;5076067;28;20585;-77
2021/03/10 01:46:01;;;;;;;8.00;4.60;;;;;8.50;101665.00;;;;5088073;28;20255;-76
2021/03/10 01:48:28;;;;;;;6.95;4.68;;;;;8.50;101660.00;;;;5080743;28;20202;-77
2021/03/10 01:50:55;;;;;;;5.85;4.00;;;;;8.60;101656.00;;;;5089425;28;20206;-77
2021/03/10 01:53:22;;;;;;;6.95;4.22;;;;;8.60;101649.00;;;;5078249;28;20199;-77
2021/03/10 01:55:52;;;;;;;6.10;4.20;;;;;8.60;101658.00;;;;5069917;28;20263;-76
2021/03/10 01:58:20;;;;;;;6.38;3.63;;;;;8.70;101648.00;;;;5086395;28;20187;-76
2021/03/10 02:00:46;;;;;;;7.32;4.50;;;;;8.70;101638.00;;;;5088007;28;20191;-76
2021/03/10 02:03:13;;;;;;;8.27;5.20;;;;;8.70;101661.00;;;;5078943;28;20201;-76
2021/03/10 02:05:40;;;;;;;7.25;4.63;;;;;8.70;101653.00;;;;5089596;28;20601;-76
2021/03/10 02:08:16;;;;;;;7.28;4.57;;;;;8.70;101650.00;;;;5087598;28;20190;-76
2021/03/10 02:10:56;;;;;;;7.95;4.63;;;;;8.80;101655.00;;;;5072377;28;20202;-77
2021/03/10 02:13:36;;;;;;;6.88;4.43;;;;;8.80;101655.00;;;;5082066;28;20205;-76
2021/03/10 02:16:11;;;;;;;6.30;4.40;;;;;8.80;101651.00;;;;5081505;28;20271;-76
2021/03/10 02:18:44;;;;;;;7.20;4.18;;;;;8.90;101651.00;;;;5080500;28;20197;-77
2021/03/10 02:21:20;;;;;;;6.43;3.90;;;;;8.90;101642.00;;;;5070679;28;20198;-77
2021/03/10 02:24:11;;;;;;;6.88;4.72;;;;;8.90;101635.00;;;;5085155;28;20210;-76
2021/03/10 02:27:05;;;;;;;5.80;3.72;;;;;8.90;101633.00;;;;5081670;28;20218;-77
2021/03/10 02:29:33;;;;;;;7.63;4.35;;;;;9.10;101618.00;;;;5082152;28;20182;-76
2021/03/10 02:32:01;;;;;;;6.60;4.25;;;;;9.10;101627.00;;;;5087292;28;20206;-77
2021/03/10 02:34:29;;;;;;;7.38;4.38;;;;;9.10;101629.00;;;;5077843;28;20209;-76
2021/03/10 02:36:57;;;;;;;6.90;4.53;;;;;9.20;101627.00;;;;5074264;28;20198;-76
2021/03/10 02:39:24;;;;;;;6.25;4.15;;;;;9.20;101621.00;;;;5083818;28;20191;-76
2021/03/10 02:41:52;;;;;;;8.05;4.50;;;;;9.30;101624.00;;;;5083220;28;20203;-77
2021/03/10 02:44:21;;;;;;;5.93;3.97;;;;;9.30;101622.00;;;;5082015;28;20215;-77
2021/03/10 02:46:48;;;;;;;5.55;3.78;;;;;9.30;101628.00;;;;5075910;28;20222;-77
2021/03/10 02:49:16;;;;;;;7.32;4.82;;;;;9.30;101621.00;;;;5089074;28;20271;-77
2021/03/10 02:51:45;;;;;;;6.95;4.05;;;;;9.40;101619.00;;;;5082514;28;20194;-76
2021/03/10 02:54:14;;;;;;;6.80;4.38;;;;;9.40;101629.00;;;;5082806;28;20195;-76
2021/03/10 02:56:41;;;;;;;5.78;4.10;;;;;9.50;101621.00;;;;5086772;28;20201;-76
2021/03/10 02:59:09;;;;;;;7.65;4.38;;;;;9.50;101615.00;;;;5074299;28;20194;-77
2021/03/10 03:01:35;;;;;;;6.57;4.35;;;;;9.50;101614.00;;;;5073208;28;20202;-76
2021/03/10 03:04:03;;;;;;;6.47;4.38;;;;;9.50;101602.00;;;;5087979;28;20668;-77
2021/03/10 03:06:30;;;;;;;5.60;4.03;;;;;9.60;101601.00;;;;5086551;28;20187;-77
2021/03/10 03:08:56;;;;;;;6.47;4.25;;;;;9.60;101603.00;;;;5087833;28;20194;-76
2021/03/10 03:11:24;;;;;;;7.55;4.70;;;;;9.60;101600.00;;;;5085309;28;20198;-77
2021/03/10 03:13:52;;;;;;;7.13;4.28;;;;;9.60;101604.00;;;;5077116;28;20210;-77
2021/03/10 03:16:19;;;;;;;7.82;4.80;;;;;9.60;101602.00;;;;5071603;28;20195;-77
2021/03/10 03:18:46;;;;;;;6.32;4.10;;;;;9.60;101596.00;;;;5087870;28;20208;-76
2021/03/10 03:21:14;;;;;;;6.80;4.53;;;;;9.60;101586.00;;;;5088782;28;20198;-77
2021/03/10 03:23:43;;;;;;;8.50;4.45;;;;;9.60;101587.00;;;;5084375;28;20960;-76
2021/03/10 03:26:10;;;;;;;7.07;4.40;;;;;9.60;101589.00;;;;5086520;28;20342;-77
2021/03/10 03:28:37;;;;;;;6.63;4.47;;;;;9.60;101594.00;;;;5071574;28;20669;-76
2021/03/10 03:31:05;;;;;;;8.40;4.72;;;;;9.60;101586.00;;;;5069142;28;20194;-77
2021/03/10 03:33:32;;;;;;;5.85;3.65;;;;;9.60;101584.00;;;;5074926;28;20198;-76
2021/03/10 03:35:59;;;;;;;7.47;4.47;;;;;9.60;101577.00;;;;5088605;28;20190;-77
2021/03/10 03:38:28;;;;;;;5.10;4.22;;;;;9.50;101576.00;;;;5073193;28;20218;-77
2021/03/10 03:40:56;;;;;;;6.43;4.43;;;;;9.50;101573.00;;;;5068579;28;20203;-76
2021/03/10 03:43:25;;;;;;;5.45;3.80;;;;;9.50;101571.00;;;;5071187;28;20297;-77
2021/03/10 03:45:52;;;;;;;7.45;4.70;;;;;9.50;101566.00;;;;5074171;28;20252;-76
2021/03/10 03:48:20;;;;;;;4.90;3.53;;;;;9.50;101567.00;;;;5075703;28;20222;-76
2021/03/10 03:50:47;;;;;;;6.63;4.45;;;;;9.50;101563.00;;;;5087723;28;20198;-77
2021/03/10 03:53:14;;;;;;;6.88;4.35;;;;;9.50;101558.00;;;;5083279;28;20206;-76
2021/03/10 03:55:42;;;;;;;6.35;3.80;;;;;9.50;101568.00;;;;5092056;28;20202;-76
2021/03/10 03:58:09;;;;;;;7.18;4.80;;;;;9.50;101557.00;;;;5072385;28;20195;-77
2021/03/10 04:00:36;;;;;;;5.50;3.60;;;;;9.50;101566.00;;;;5078808;28;20202;-76
2021/03/10 04:03:03;;;;;;;6.07;4.40;;;;;9.50;101567.00;;;;5078099;28;20217;-77
2021/03/10 04:05:30;;;;;;;6.65;4.57;;;;;9.50;101566.00;;;;5077087;28;20237;-77
2021/03/10 04:07:58;;;;;;;6.05;4.35;;;;;9.50;101565.00;;;;5078365;28;20269;-76
2021/03/10 04:10:27;;;;;;;6.63;3.92;;;;;9.50;101569.00;;;;5079182;28;20191;-76
2021/03/10 04:12:55;;;;;;;6.75;4.43;;;;;9.50;101559.00;;;;5077716;28;20191;-76
2021/03/10 04:15:22;;;;;;;6.25;4.55;;;;;9.50;101557.00;;;;5078503;28;20198;-77
2021/03/10 04:17:49;;;;;;;6.55;3.97;;;;;9.50;101541.00;;;;5091271;28;20206;-77
2021/03/10 04:20:18;;;;;;;6.68;4.00;;;;;9.50;101546.00;;;;5091129;28;20687;-77
2021/03/10 04:22:45;;;;;;;5.90;3.92;;;;;9.50;101551.00;;;;5077668;28;20199;-77
2021/03/10 04:25:14;;;;;;;6.57;4.05;;;;;9.50;101552.00;;;;5072004;28;20229;-77
2021/03/10 04:27:41;;;;;;;6.35;4.53;;;;;9.50;101549.00;;;;5072391;28;20296;-77
2021/03/10 04:30:10;;;;;;;6.20;3.85;;;;;9.50;101561.00;;;;5091280;28;20191;-77
2021/03/10 04:32:37;;;;;;;6.55;3.97;;;;;9.50;101551.00;;;;5072333;28;20610;-77
2021/03/10 04:35:05;;;;;;;8.48;4.50;;;;;9.50;101550.00;;;;5081749;28;20198;-76
2021/03/10 04:37:32;;;;;;;5.72;4.03;;;;;9.50;101552.00;;;;5090674;28;20190;-77
2021/03/10 04:39:59;;;;;;;6.00;4.00;;;;;9.50;101555.00;;;;5090697;28;20721;-77
2021/03/10 04:42:25;;;;;;;6.75;4.15;;;;;9.50;101548.00;;;;5081780;28;20206;-77
2021/03/10 04:44:52;;;;;;;8.00;4.25;;;;;9.50;101539.00;;;;5090452;28;20218;-77
2021/03/10 04:47:20;;;;;;;5.60;4.00;;;;;9.50;101545.00;;;;5091046;28;20328;-77
2021/03/10 04:49:47;;;;;;;6.32;4.35;;;;;9.50;101542.00;;;;5090436;28;20676;-77
2021/03/10 04:52:16;;;;;;;5.53;3.90;;;;;9.50;101548.00;;;;5089204;28;20225;-77
2021/03/10 04:54:42;;;;;;;7.13;4.43;;;;;9.50;101562.00;;;;5082642;28;20653;-77
2021/03/10 04:57:09;;;;;;;7.13;4.22;;;;;9.50;101561.00;;;;5071744;28;20191;-77
2021/03/10 04:59:36;;;;;;;7.07;4.07;;;;;9.50;101556.00;;;;5089430;28;20570;-77
2021/03/10 05:02:03;;;;;;;6.25;3.97;;;;;9.50;101557.00;;;;5083469;28;20222;-77
2021/03/10 05:04:30;;;;;;;6.22;4.32;;;;;9.50;101551.00;;;;5089163;28;20222;-76
2021/03/10 05:06:57;;;;;;;8.00;4.72;;;;;9.50;101551.00;;;;5075706;28;20199;-77
2021/03/10 05:09:24;;;;;;;7.30;4.57;;;;;9.50;101540.00;;;;5077958;28;20229;-76
2021/03/10 05:11:50;;;;;;;5.75;3.92;;;;;9.50;101546.00;;;;5086476;28;20209;-77
2021/03/10 05:14:17;;;;;;;6.97;4.95;;;;;9.50;101539.00;;;;5088947;28;20673;-77
2021/03/10 05:16:44;;;;;;;8.57;5.20;;;;;9.50;101539.00;;;;5082250;28;20591;-77
2021/03/10 05:19:10;;;;;;;6.93;4.70;;;;;9.50;101541.00;;;;5081851;28;20186;-77
2021/03/10 05:21:38;;;;;;;7.45;4.78;;;;;9.50;101528.00;;;;5070998;28;20195;-74
2021/03/10 05:24:06;;;;;;;6.05;4.22;;;;;9.50;101538.00;;;;5083883;28;20676;-74
2021/03/10 05:26:32;;;;;;;8.35;5.03;;;;;9.50;101541.00;;;;5075261;28;20677;-74
2021/03/10 05:28:59;;;;;;;8.55;5.45;;;;;9.50;101530.00;;;;5084521;28;20205;-75
2021/03/10 05:31:26;;;;;;;8.65;5.18;;;;;9.50;101519.00;;;;5088152;28;20191;-77
2021/03/10 05:33:53;;;;;;;8.77;5.10;;;;;9.60;101527.00;;;;5089142;28;20217;-77
2021/03/10 05:36:22;;;;;;;9.43;5.32;;;;;9.50;101530.00;;;;5088949;28;20198;-77
2021/03/10 05:38:50;;;;;;;7.47;5.13;;;;;9.60;101530.00;;;;5074570;28;20198;-77
2021/03/10 05:41:17;;;;;;;7.05;4.30;;;;;9.60;101531.00;;;;5070170;28;20206;-77
2021/03/10 05:43:44;;;;;;;7.07;4.40;;;;;9.60;101535.00;;;;5086746;28;20221;-76
2021/03/10 05:46:12;;;;;;;7.47;5.28;;;;;9.60;101530.00;;;;5070825;28;20700;-76
2021/03/10 05:48:39;;;;;;;10.43;5.93;;;;;9.60;101530.00;;;;5081896;28;20202;-77
2021/03/10 05:51:06;;;;;;;6.72;4.93;;;;;9.60;101526.00;;;;5089149;28;20191;-77
2021/03/10 05:53:38;;;;;;;8.20;4.88;;;;;9.60;101520.00;;;;5082455;28;20190;-77
2021/03/10 05:56:07;;;;;;;7.03;4.40;;;;;9.70;101537.00;;;;5088757;28;20446;-77
2021/03/10 05:58:34;;;;;;;8.77;5.90;;;;;9.70;101533.00;;;;5074884;28;20199;-77
2021/03/10 06:01:00;;;;;;;9.40;5.43;;;;;9.70;101526.00;;;;5084183;28;20645;-77
2021/03/10 06:03:27;;;;;;;7.78;5.15;;;;;9.70;101522.00;;;;5085975;28;20573;-77
2021/03/10 06:06:02;;;;;;;9.15;5.70;;;;;9.70;101517.00;;;;5072909;28;20234;-77
2021/03/10 06:08:30;;;;;;;11.05;6.03;;;;;9.80;101519.00;;;;5080935;28;20614;-77
2021/03/10 06:10:57;;;;;;;10.48;6.05;;;;;9.80;101512.00;;;;5083558;28;20676;-77
2021/03/10 06:13:26;;;;;;;7.72;4.47;;;;;9.80;101504.00;;;;5083808;28;20259;-77
2021/03/10 06:15:54;;;;;;;7.88;5.10;;;;;9.80;101507.00;;;;5086213;28;20240;-78
2021/03/10 06:18:22;;;;;;;11.55;6.85;;;;;9.80;101507.00;;;;5088687;28;20668;-77
2021/03/10 06:20:49;;;;;;;10.35;6.60;;;;;9.80;101517.00;;;;5085046;28;20207;-77
2021/03/10 06:23:17;;;;;;;11.45;6.18;;;;;9.80;101506.00;;;;5081241;28;20205;-77
2021/03/10 06:25:44;;;;;;;11.00;6.13;;;;;9.90;101504.00;;;;5079330;28;20231;-77
2021/03/10 06:28:11;;;;;;;9.85;6.38;;;;;9.90;101507.00;;;;5083762;28;20195;-77
2021/03/10 06:30:42;;;;;;;9.40;6.07;;;;;9.90;101519.00;;;;5083247;28;20198;-77
2021/03/10 06:33:09;;;;;;;11.43;6.68;;;;;9.90;101515.00;;;;5074974;28;20198;-77
2021/03/10 06:35:37;;;;;;;9.32;5.70;;;;;9.90;101518.00;;;;5081899;28;20194;-78
2021/03/10 06:38:12;;;;;;;10.88;6.32;;;;;9.90;101512.00;;;;5084973;28;20559;-77
2021/03/10 06:40:53;;;;;;;13.60;6.15;;;;;9.90;101506.00;;;;5084318;28;20190;-76
2021/03/10 06:43:21;;;;;;;11.25;6.95;;;;;10.00;101510.00;;;;5080669;28;20194;-77
2021/03/10 06:45:49;;;;;;;14.93;7.90;;;;;10.00;101505.00;;;;5078032;28;20716;-77
2021/03/10 06:48:20;;;;;;;12.48;7.05;;;;;10.10;101503.00;;;;5074870;28;20201;-78
2021/03/10 06:50:47;;;;;;;11.88;7.43;;;;;10.10;101503.00;;;;5083939;28;20202;-78
2021/03/10 06:53:14;;;;;;;14.30;7.32;;;;;10.10;101504.00;;;;5078448;28;20201;-77
2021/03/10 06:55:42;;;;;;;13.60;7.75;;;;;10.10;101500.00;;;;5085814;28;20207;-78
2021/03/10 06:58:10;;;;;;;13.27;8.38;;;;;10.20;101499.00;;;;5071439;28;20208;-77
2021/03/10 07:00:38;;;;;;;15.07;8.70;;;;;10.20;101503.00;;;;5084273;28;20183;-76
2021/03/10 07:03:06;;;;;;;14.82;7.60;;;;;10.20;101497.00;;;;5088833;28;20203;-77
2021/03/10 07:05:33;;;;;;;13.60;7.90;;;;;10.30;101496.00;;;;5088484;28;20222;-76
2021/03/10 07:08:00;;;;;;;16.88;9.48;;;;;10.30;101504.00;;;;5087796;28;20201;-77
2021/03/10 07:10:28;;;;;;;14.10;8.55;;;;;10.30;101508.00;;;;5087227;28;20288;-77
2021/03/10 07:12:59;;;;;;;14.02;9.02;;;;;10.30;101509.00;;;;5087703;28;20191;-77
2021/03/10 07:15:27;;;;;;;15.52;8.57;;;;;10.40;101505.00;;;;5088945;28;20194;-77
2021/03/10 07:17:54;;;;;;;14.73;8.73;;;;;10.40;101497.00;;;;5086259;28;20557;-77
2021/03/10 07:20:22;;;;;;;13.55;8.13;;;;;10.50;101502.00;;;;5088902;28;20664;-77
2021/03/10 07:22:56;;;;;;;16.42;9.48;;;;;10.50;101509.00;;;;5087868;28;20190;-77
2021/03/10 07:25:27;;;;;;;16.20;9.48;;;;;10.50;101505.00;;;;5087620;28;20317;-77
2021/03/10 07:27:58;;;;;;;15.60;9.07;;;;;10.60;101514.00;;;;5090140;28;20206;-77
2021/03/10 07:30:38;;;;;;;15.80;9.93;;;;;10.60;101516.00;;;;5080512;28;20202;-77
2021/03/10 07:33:10;;;;;;;17.20;9.63;;;;;10.70;101517.00;;;;5091854;28;20668;-76
2021/03/10 07:35:52;;;;;;;17.10;10.07;;;;;10.60;101518.00;;;;5087124;28;20202;-76
2021/03/10 07:38:19;;;;;;;14.95;10.00;;;;;10.70;101514.00;;;;5071347;28;20195;-75
2021/03/10 07:41:00;;;;;;;15.93;10.10;;;;;10.70;101515.00;;;;5072071;28;20656;-74
2021/03/10 07:43:39;;;;;;;21.85;9.95;;;;;10.80;101507.00;;;;5072225;28;20198;-74
2021/03/10 07:46:23;;;;;;;17.27;10.55;;;;;10.90;101505.00;;;;5071331;28;20746;-74
2021/03/10 07:48:50;;;;;;;17.20;9.38;;;;;10.90;101515.00;;;;5071456;28;20194;-74
2021/03/10 07:51:28;;;;;;;17.70;10.27;;;;;10.90;101502.00;;;;5078848;28;20203;-74
2021/03/10 07:53:55;;;;;;;13.75;8.30;;;;;11.00;101513.00;;;;5091486;28;20194;-75
2021/03/10 07:56:27;;;;;;;17.25;10.43;;;;;11.00;101513.00;;;;5091501;28;20275;-74
2021/03/10 07:58:53;;;;;;;17.42;9.48;;;;;11.10;101513.00;;;;5087566;28;20203;-75
2021/03/10 08:01:20;;;;;;;18.10;10.43;;;;;11.10;101514.00;;;;5081731;28;20222;-75
2021/03/10 08:03:47;;;;;;;21.17;11.32;;;;;11.20;101516.00;;;;5081542;28;20285;-75
2021/03/10 08:06:14;;;;;;;18.55;11.48;;;;;11.20;101522.00;;;;5077460;28;20222;-75
2021/03/10 08:08:44;;;;;;;19.15;11.05;;;;;11.30;101520.00;;;;5082673;28;20279;-75
2021/03/10 08:11:13;;;;;;;21.58;11.80;;;;;11.30;101519.00;;;;5084161;28;20205;-75
2021/03/10 08:13:41;;;;;;;21.02;12.23;;;;;11.40;101517.00;;;;5073479;28;20737;-75
2021/03/10 08:16:09;;;;;;;20.98;12.00;;;;;11.40;101511.00;;;;5077111;28;20202;-75
2021/03/10 08:18:37;;;;;;;20.92;12.02;;;;;11.50;101508.00;;;;5083474;28;20202;-75
2021/03/10 08:21:09;;;;;;;18.80;10.75;;;;;11.50;101513.00;;;;5081077;28;20192;-75
2021/03/10 08:23:36;;;;;;;19.15;11.80;;;;;11.60;101512.00;;;;5089785;28;20202;-75
2021/03/10 08:26:04;;;;;;;20.48;11.73;;;;;11.60;101511.00;;;;5082394;28;20293;-75
2021/03/10 08:28:35;;;;;;;21.17;11.68;;;;;11.70;101510.00;;;;5085251;28;20244;-75
2021/03/10 08:31:05;;;;;;;20.67;13.00;;;;;11.80;101508.00;;;;5087019;28;20198;-76
2021/03/10 08:33:44;;;;;;;18.42;11.57;;;;;11.80;101508.00;;;;5084444;28;20205;-75
2021/03/10 08:36:11;;;;;;;17.50;11.18;;;;;11.90;101504.00;;;;5086405;28;20210;-75
2021/03/10 08:38:37;;;;;;;16.55;11.15;;;;;11.90;101490.00;;;;5075850;28;20289;-75
2021/03/10 08:41:06;;;;;;;22.25;12.88;;;;;12.00;101485.00;;;;5089140;28;20199;-75
2021/03/10 08:43:33;;;;;;;20.73;11.60;;;;;12.00;101494.00;;;;5087238;28;20582;-75
2021/03/10 08:46:00;;;;;;;18.10;11.25;;;;;12.10;101496.00;;;;5089638;28;20222;-76
2021/03/10 08:48:33;;;;;;;18.33;12.57;;;;;12.10;101496.00;;;;5086887;28;20207;-77
2021/03/10 08:51:02;;;;;;;21.55;12.95;;;;;12.20;101501.00;;;;5087239;28;20234;-76
2021/03/10 08:53:30;;;;;;;21.63;12.40;;;;;12.20;101488.00;;;;5083093;28;20215;-76
2021/03/10 08:56:07;;;;;;;18.92;10.95;;;;;12.20;101485.00;;;;5088032;28;20959;-76
2021/03/10 08:58:34;;;;;;;19.10;11.27;;;;;12.30;101492.00;;;;5086831;28;20263;-76
2021/03/10 09:01:01;;;;;;;19.15;11.23;;;;;12.40;101476.00;;;;5086760;28;20202;-75
2021/03/10 09:03:28;;;;;;;21.35;13.02;;;;;12.40;101476.00;;;;5087493;28;20190;-76
2021/03/10 09:06:01;;;;;;;20.85;13.00;;;;;12.40;101484.00;;;;5085736;28;20230;-77
2021/03/10 09:08:28;;;;;;;21.38;11.45;;;;;12.50;101480.00;;;;5081501;28;20194;-76
2021/03/10 09:10:57;;;;;;;18.50;11.88;;;;;12.50;101469.00;;;;5085536;28;20209;-76
2021/03/10 09:13:25;;;;;;;21.42;13.13;;;;;12.60;101473.00;;;;5089516;28;20327;-76
2021/03/10 09:15:52;;;;;;;20.77;12.68;;;;;12.60;101469.00;;;;5089688;28;20194;-77
2021/03/10 09:18:19;;;;;;;18.23;11.73;;;;;12.60;101470.00;;;;5079832;28;20191;-77
2021/03/10 09:20:48;;;;;;;17.30;10.70;;;;;12.70;101456.00;;;;5076186;28;20214;-77
2021/03/10 09:23:25;;;;;;;18.10;11.23;;;;;12.70;101463.00;;;;5086919;28;20663;-77
2021/03/10 09:25:55;;;;;;;19.02;12.07;;;;;12.80;101464.00;;;;5080202;28;20230;-78
2021/03/10 09:28:22;;;;;;;17.63;11.02;;;;;12.80;101458.00;;;;5088268;28;20206;-78
2021/03/10 09:30:51;;;;;;;19.13;11.55;;;;;12.90;101455.00;;;;5084602;28;20194;-77
2021/03/10 09:33:19;;;;;;;19.40;12.27;;;;;12.90;101454.00;;;;5087573;28;20205;-77
2021/03/10 09:35:52;;;;;;;19.00;11.27;;;;;12.90;101454.00;;;;5084475;28;20225;-79
2021/03/10 09:38:20;;;;;;;17.35;11.65;;;;;13.00;101442.00;;;;5084778;28;20203;-77
2021/03/10 09:40:50;;;;;;;20.65;11.65;;;;;13.00;101447.00;;;;5083717;28;20205;-77
2021/03/10 09:43:19;;;;;;;23.30;11.98;;;;;13.10;101451.00;;;;5087817;28;20571;-77
2021/03/10 09:45:48;;;;;;;21.30;11.75;;;;;13.10;101441.00;;;;5087373;28;20233;-77
2021/03/10 09:48:27;;;;;;;16.92;11.80;;;;;13.20;101440.00;;;;5082508;28;20198;-76
2021/03/10 09:51:01;;;;;;;19.17;11.20;;;;;13.20;101423.00;;;;5085639;28;20217;-78
2021/03/10 09:53:28;;;;;;;17.33;11.15;;;;;13.20;101432.00;;;;5085987;28;20194;-77
2021/03/10 09:56:05;;;;;;;17.90;10.60;;;;;13.20;101435.00;;;;5087437;28;20204;-78
2021/03/10 09:58:32;;;;;;;17.77;11.85;;;;;13.30;101431.00;;;;5083064;28;20205;-78
2021/03/10 10:01:00;;;;;;;18.52;11.07;;;;;13.40;101436.00;;;;5088895;28;20255;-77
2021/03/10 10:03:28;;;;;;;18.42;10.77;;;;;13.40;101422.00;;;;5084867;28;20540;-78
2021/03/10 10:06:06;;;;;;;17.70;11.02;;;;;13.40;101430.00;;;;5085535;28;20230;-77
2021/03/10 10:08:34;;;;;;;14.88;9.73;;;;;13.60;101424.00;;;;5083086;28;20355;-78
2021/03/10 10:11:01;;;;;;;15.73;10.60;;;;;13.60;101423.00;;;;5080320;28;20754;-77
2021/03/10 10:13:28;;;;;;;15.30;10.20;;;;;13.70;101418.00;;;;5085124;28;20194;-77
2021/03/10 10:15:55;;;;;;;15.05;10.73;;;;;13.70;101407.00;;;;5086300;28;20699;-77
2021/03/10 10:18:22;;;;;;;17.75;11.27;;;;;13.80;101408.00;;;;5087296;28;20354;-77
2021/03/10 10:20:50;;;;;;;18.88;10.57;;;;;13.80;101418.00;;;;5070394;28;20205;-78
2021/03/10 10:23:17;;;;;;;16.95;10.35;;;;;13.90;101414.00;;;;5079900;28;20206;-77
2021/03/10 10:25:44;;;;;;;15.30;9.23;;;;;14.00;101410.00;;;;5081840;28;20226;-77
2021/03/10 10:28:10;;;;;;;16.52;10.32;;;;;14.00;101412.00;;;;5078064;28;20199;-76
2021/03/10 10:30:38;;;;;;;17.73;9.80;;;;;14.10;101413.00;;;;5083939;28;20199;-78
2021/03/10 10:33:05;;;;;;;15.15;10.50;;;;;14.10;101408.00;;;;5084903;28;20213;-79
2021/03/10 10:35:32;;;;;;;15.38;9.57;;;;;14.20;101409.00;;;;5087933;28;20554;-78
2021/03/10 10:37:59;;;;;;;15.23;9.23;;;;;14.20;101412.00;;;;5086551;28;20202;-78
2021/03/10 10:40:26;;;;;;;21.27;9.68;;;;;14.30;101409.00;;;;5084970;28;20202;-78
2021/03/10 10:42:53;;;;;;;12.68;8.60;;;;;14.30;101402.00;;;;5086293;28;20677;-79
2021/03/10 10:45:20;;;;;;;13.48;9.25;;;;;14.40;101396.00;;;;5078985;28;20223;-79
2021/03/10 10:47:47;;;;;;;13.98;10.30;;;;;14.40;101383.00;;;;5078789;28;21057;-78
2021/03/10 10:50:15;;;;;;;12.18;8.98;;;;;14.50;101380.00;;;;5084086;28;20688;-78
2021/03/10 10:52:44;;;;;;;15.10;9.50;;;;;14.50;101389.00;;;;5074294;28;20206;-78
2021/03/10 10:55:17;;;;;;;14.50;9.60;;;;;14.50;101391.00;;;;5074956;28;20577;-79
2021/03/10 10:57:44;;;;;;;15.40;9.02;;;;;14.60;101387.00;;;;5081883;28;20290;-78
2021/03/10 11:00:13;;;;;;;14.68;8.88;;;;;14.60;101381.00;;;;5080908;28;20213;-78
2021/03/10 11:02:39;;;;;;;16.05;9.63;;;;;14.70;101377.00;;;;5071941;28;20187;-78
2021/03/10 11:05:07;;;;;;;15.75;9.77;;;;;14.70;101372.00;;;;5078754;28;20228;-80
2021/03/10 11:07:34;;;;;;;13.10;8.85;;;;;14.80;101382.00;;;;5079558;28;20194;-79
2021/03/10 11:10:01;;;;;;;14.07;9.45;;;;;14.80;101369.00;;;;5078454;28;20210;-80
2021/03/10 11:12:28;;;;;;;14.85;9.32;;;;;14.80;101366.00;;;;5083728;28;20688;-80
2021/03/10 11:14:55;;;;;;;13.60;9.40;;;;;14.90;101373.00;;;;5086432;28;20323;-79
2021/03/10 11:17:22;;;;;;;10.55;7.47;;;;;14.90;101360.00;;;;5079405;28;20198;-80
2021/03/10 11:19:49;;;;;;;12.52;8.57;;;;;14.90;101361.00;;;;5083426;28;20210;-78
2021/03/10 11:22:16;;;;;;;11.25;7.90;;;;;15.00;101363.00;;;;5082611;28;20194;-79
2021/03/10 11:24:43;;;;;;;11.55;7.50;;;;;15.00;101352.00;;;;5087644;28;20676;-80
2021/03/10 11:27:10;;;;;;;16.08;9.82;;;;;15.10;101358.00;;;;5087954;28;20224;-80
2021/03/10 11:29:38;;;;;;;13.18;8.43;;;;;15.10;101342.00;;;;5088041;28;20233;-80
2021/03/10 11:32:05;;;;;;;10.60;7.65;;;;;15.10;101340.00;;;;5086004;28;20868;-79
2021/03/10 11:34:32;;;;;;;14.68;8.35;;;;;15.20;101340.00;;;;5085725;28;20202;-78
2021/03/10 11:36:58;;;;;;;11.75;8.07;;;;;15.20;101331.00;;;;5087349;28;20203;-78
2021/03/10 11:39:25;;;;;;;12.93;8.60;;;;;15.30;101333.00;;;;5087255;28;20206;-79
2021/03/10 11:41:52;;;;;;;12.95;8.93;;;;;15.30;101334.00;;;;5081423;28;20660;-78
2021/03/10 11:44:18;;;;;;;9.95;7.40;;;;;15.40;101330.00;;;;5087128;28;20198;-79
2021/03/10 11:46:46;;;;;;;14.10;8.43;;;;;15.50;101327.00;;;;5086448;28;20249;-78
2021/03/10 11:49:13;;;;;;;18.05;8.27;;;;;15.50;101325.00;;;;5087993;28;20198;-79
2021/03/10 11:51:39;;;;;;;14.15;9.35;;;;;15.60;101319.00;;;;5079645;28;20199;-78
2021/03/10 11:54:07;;;;;;;14.88;8.75;;;;;15.60;101313.00;;;;5081045;28;20255;-78
2021/03/10 11:56:34;;;;;;;12.25;8.15;;;;;15.60;101309.00;;;;5085897;28;20214;-78
2021/03/10 11:59:01;;;;;;;15.88;8.55;;;;;15.70;101311.00;;;;5076764;28;20637;-78
2021/03/10 12:01:28;;;;;;;16.75;10.23;;;;;15.70;101297.00;;;;5076657;28;20198;-78
2021/03/10 12:03:55;;;;;;;11.18;7.85;;;;;15.80;101303.00;;;;5081435;28;20197;-78
2021/03/10 12:06:22;;;;;;;13.20;8.68;;;;;15.90;101294.00;;;;5083934;28;20219;-78
2021/03/10 12:08:49;;;;;;;13.77;9.27;;;;;15.90;101288.00;;;;5085474;28;20687;-79
2021/03/10 12:11:16;;;;;;;13.25;8.52;;;;;16.00;101276.00;;;;5086984;28;20214;-79